createdAt,value
2023-12-23T00:00:09.814Z,10.50
2023-12-23T00:02:36.669Z,10.50
2023-12-23T00:05:03.709Z,10.50
2023-12-23T00:07:30.589Z,10.40
2023-12-23T00:09:57.506Z,10.40
2023-12-23T00:12:25.654Z,10.40
2023-12-23T00:14:52.516Z,10.40
2023-12-23T00:17:19.987Z,10.40
2023-12-23T00:19:47.999Z,10.40
2023-12-23T00:22:15.044Z,10.40
2023-12-23T00:24:42.333Z,10.40
2023-12-23T00:27:09.244Z,10.40
2023-12-23T00:29:36.052Z,10.40
2023-12-23T00:32:03.202Z,10.40
2023-12-23T00:34:30.012Z,10.40
2023-12-23T00:36:59.031Z,10.40
2023-12-23T00:39:25.955Z,10.40
2023-12-23T00:41:53.084Z,10.40
2023-12-23T00:44:20.072Z,10.30
2023-12-23T00:46:50.074Z,10.30
2023-12-23T00:49:17.049Z,10.30
2023-12-23T00:51:44.449Z,10.30
2023-12-23T00:54:12.932Z,10.30
2023-12-23T00:56:41.313Z,10.30
2023-12-23T00:59:08.239Z,10.30
2023-12-23T01:01:36.178Z,10.30
2023-12-23T01:04:06.578Z,10.20
2023-12-23T01:06:33.740Z,10.20
2023-12-23T01:09:01.036Z,10.30
2023-12-23T01:11:27.840Z,10.30
2023-12-23T01:13:55.776Z,10.30
2023-12-23T01:16:22.699Z,10.30
2023-12-23T01:18:49.736Z,10.30
2023-12-23T01:21:16.895Z,10.30
2023-12-23T01:23:43.745Z,10.40
2023-12-23T01:26:10.708Z,10.40
2023-12-23T01:28:38.648Z,10.40
2023-12-23T01:31:06.708Z,10.40
2023-12-23T01:33:33.648Z,10.40
2023-12-23T01:36:00.543Z,10.40
2023-12-23T01:38:27.412Z,10.40
2023-12-23T01:40:54.305Z,10.40
2023-12-23T01:43:21.210Z,10.50
2023-12-23T01:45:48.285Z,10.40
2023-12-23T01:48:15.666Z,10.50
2023-12-23T01:50:42.961Z,10.50
2023-12-23T01:53:10.136Z,10.50
2023-12-23T01:55:37.123Z,10.40
2023-12-23T01:58:04.248Z,10.50
2023-12-23T02:00:31.209Z,10.50
2023-12-23T02:02:58.523Z,10.50
2023-12-23T02:05:25.742Z,10.50
2023-12-23T02:07:53.682Z,10.50
2023-12-23T02:10:21.352Z,10.50
2023-12-23T02:13:10.113Z,10.50
2023-12-23T02:15:43.280Z,10.50
2023-12-23T02:18:11.683Z,10.50
2023-12-23T02:20:38.655Z,10.50
2023-12-23T02:23:05.885Z,10.50
2023-12-23T02:25:33.515Z,10.50
2023-12-23T02:28:06.584Z,10.50
2023-12-23T02:30:35.010Z,10.50
2023-12-23T02:33:02.677Z,10.50
2023-12-23T02:35:29.614Z,10.50
2023-12-23T02:37:56.612Z,10.50
2023-12-23T02:40:23.576Z,10.50
2023-12-23T02:42:50.643Z,10.50
2023-12-23T02:45:17.897Z,10.50
2023-12-23T02:47:44.822Z,10.50
2023-12-23T02:50:11.828Z,10.50
2023-12-23T02:52:38.795Z,10.60
2023-12-23T02:55:06.262Z,10.50
2023-12-23T02:57:33.170Z,10.60
2023-12-23T03:00:00.032Z,10.60
2023-12-23T03:02:26.937Z,10.60
2023-12-23T03:04:53.791Z,10.50
2023-12-23T03:07:20.649Z,10.60
2023-12-23T03:09:47.459Z,10.60
2023-12-23T03:12:14.296Z,10.60
2023-12-23T03:14:42.062Z,10.60
2023-12-23T03:17:08.965Z,10.60
2023-12-23T03:19:35.792Z,10.60
2023-12-23T03:22:03.458Z,10.60
2023-12-23T03:24:30.312Z,10.60
2023-12-23T03:26:57.130Z,10.60
2023-12-23T03:29:24.134Z,10.60
2023-12-23T03:31:51.007Z,10.60
2023-12-23T03:34:17.915Z,10.70
2023-12-23T03:36:44.727Z,10.60
2023-12-23T03:39:11.811Z,10.70
2023-12-23T03:41:39.171Z,10.60
2023-12-23T03:44:06.124Z,10.60
2023-12-23T03:46:32.973Z,10.60
2023-12-23T03:48:59.825Z,10.60
2023-12-23T03:51:26.746Z,10.60
2023-12-23T03:53:53.535Z,10.60
2023-12-23T03:56:20.416Z,10.70
2023-12-23T03:58:47.376Z,10.70
2023-12-23T04:01:18.510Z,10.70
2023-12-23T04:03:46.214Z,10.70
2023-12-23T04:06:13.171Z,10.70
2023-12-23T04:08:41.503Z,10.70
2023-12-23T04:11:09.576Z,10.80
2023-12-23T04:13:38.976Z,10.70
2023-12-23T04:16:06.706Z,10.70
2023-12-23T04:18:33.659Z,10.70
2023-12-23T04:21:00.705Z,10.70
2023-12-23T04:23:27.596Z,10.70
2023-12-23T04:25:54.588Z,10.70
2023-12-23T04:28:26.337Z,10.70
2023-12-23T04:30:58.437Z,10.70
2023-12-23T04:33:25.755Z,10.70
2023-12-23T04:35:53.199Z,10.70
2023-12-23T04:38:20.238Z,10.70
2023-12-23T04:40:48.402Z,10.70
2023-12-23T04:43:15.282Z,10.70
2023-12-23T04:45:42.226Z,10.70
2023-12-23T04:48:09.216Z,10.70
2023-12-23T04:50:36.302Z,10.70
2023-12-23T04:53:03.224Z,10.70
2023-12-23T04:55:30.343Z,10.70
2023-12-23T04:57:57.367Z,10.70
2023-12-23T05:00:24.556Z,10.70
2023-12-23T05:02:54.845Z,10.70
2023-12-23T05:05:22.000Z,10.70
2023-12-23T05:07:50.263Z,10.70
2023-12-23T05:10:18.376Z,10.80
2023-12-23T05:12:45.199Z,10.80
2023-12-23T05:15:12.288Z,10.80
2023-12-23T05:17:39.677Z,10.80
2023-12-23T05:20:09.571Z,10.80
2023-12-23T05:22:36.696Z,10.80
2023-12-23T05:25:04.124Z,10.90
2023-12-23T05:27:31.068Z,10.80
2023-12-23T05:29:58.763Z,10.80
2023-12-23T05:32:26.911Z,10.80
2023-12-23T05:34:54.916Z,10.80
2023-12-23T05:37:21.775Z,10.80
2023-12-23T05:39:49.821Z,10.80
2023-12-23T05:42:16.709Z,10.80
2023-12-23T05:44:43.768Z,10.90
2023-12-23T05:47:10.658Z,10.90
2023-12-23T05:49:37.761Z,10.80
2023-12-23T05:52:04.970Z,10.90
2023-12-23T05:54:31.810Z,10.90
2023-12-23T05:56:58.777Z,10.90
2023-12-23T05:59:26.003Z,10.90
2023-12-23T06:01:53.680Z,11.00
2023-12-23T06:04:21.027Z,10.90
2023-12-23T06:06:48.021Z,11.00
2023-12-23T06:09:15.073Z,10.90
2023-12-23T06:11:42.333Z,11.00
2023-12-23T06:14:09.619Z,10.90
2023-12-23T06:16:41.492Z,10.90
2023-12-23T06:19:08.795Z,10.90
2023-12-23T06:21:36.054Z,10.90
2023-12-23T06:24:03.190Z,11.00
2023-12-23T06:26:30.100Z,11.00
2023-12-23T06:28:57.098Z,11.10
2023-12-23T06:31:23.982Z,11.10
2023-12-23T06:33:51.984Z,11.10
2023-12-23T06:36:19.026Z,11.10
2023-12-23T06:38:46.288Z,11.10
2023-12-23T06:41:13.804Z,11.10
2023-12-23T06:43:46.529Z,11.10
2023-12-23T06:46:19.714Z,11.20
2023-12-23T06:48:47.203Z,11.20
2023-12-23T06:51:14.365Z,11.20
2023-12-23T06:53:41.313Z,11.20
2023-12-23T06:56:09.122Z,11.20
2023-12-23T06:58:36.089Z,11.20
2023-12-23T07:01:03.151Z,11.10
2023-12-23T07:03:30.207Z,11.10
2023-12-23T07:05:58.345Z,11.10
2023-12-23T07:08:25.416Z,11.10
2023-12-23T07:10:52.476Z,11.10
2023-12-23T07:13:19.496Z,11.10
2023-12-23T07:15:46.371Z,11.10
2023-12-23T07:18:13.459Z,11.10
2023-12-23T07:20:42.315Z,11.20
2023-12-23T07:23:09.558Z,11.10
2023-12-23T07:25:36.594Z,11.10
2023-12-23T07:28:03.624Z,11.10
2023-12-23T07:30:30.696Z,11.10
2023-12-23T07:32:58.011Z,11.10
2023-12-23T07:35:27.119Z,11.10
2023-12-23T07:37:54.530Z,11.10
2023-12-23T07:40:21.569Z,11.10
2023-12-23T07:42:48.729Z,11.10
2023-12-23T07:45:16.213Z,11.10
2023-12-23T07:47:43.477Z,11.10
2023-12-23T07:50:12.807Z,11.10
2023-12-23T07:52:40.909Z,11.10
2023-12-23T07:55:08.684Z,11.10
2023-12-23T07:57:35.814Z,11.10
2023-12-23T08:00:03.730Z,11.10
2023-12-23T08:02:31.770Z,11.10
2023-12-23T08:05:01.155Z,11.10
2023-12-23T08:07:28.203Z,11.10
2023-12-23T08:09:55.410Z,11.10
2023-12-23T08:12:22.434Z,11.20
2023-12-23T08:14:51.076Z,11.20
2023-12-23T08:17:18.308Z,11.20
2023-12-23T08:19:45.247Z,11.20
2023-12-23T08:22:13.687Z,11.20
2023-12-23T08:24:41.185Z,11.20
2023-12-23T08:27:08.447Z,11.20
2023-12-23T08:29:35.584Z,11.30
2023-12-23T08:32:02.504Z,11.30
2023-12-23T08:34:31.070Z,11.30
2023-12-23T08:36:58.135Z,11.30
2023-12-23T08:39:25.925Z,11.30
2023-12-23T08:41:52.798Z,11.30
2023-12-23T08:44:22.876Z,11.30
2023-12-23T08:46:51.214Z,11.30
2023-12-23T08:49:18.835Z,11.30
2023-12-23T08:51:45.791Z,11.30
2023-12-23T08:54:17.002Z,11.30
2023-12-23T08:56:43.989Z,11.30
2023-12-23T08:59:10.991Z,11.30
2023-12-23T09:01:38.077Z,11.30
2023-12-23T09:04:07.427Z,11.30
2023-12-23T09:06:35.515Z,11.30
2023-12-23T09:09:02.908Z,11.40
2023-12-23T09:11:30.100Z,11.40
2023-12-23T09:13:56.948Z,11.40
2023-12-23T09:16:24.158Z,11.40
2023-12-23T09:18:51.139Z,11.40
2023-12-23T09:21:18.463Z,11.40
2023-12-23T09:23:45.374Z,11.40
2023-12-23T09:26:13.234Z,11.40
2023-12-23T09:28:40.060Z,11.40
2023-12-23T09:31:06.905Z,11.40
2023-12-23T09:33:33.840Z,11.40
2023-12-23T09:36:00.852Z,11.40
2023-12-23T09:38:27.792Z,11.40
2023-12-23T09:40:54.699Z,11.40
2023-12-23T09:43:22.636Z,11.40
2023-12-23T09:45:51.085Z,11.40
2023-12-23T09:48:18.108Z,11.40
2023-12-23T09:50:47.224Z,11.50
2023-12-23T09:53:15.968Z,11.50
2023-12-23T09:55:43.445Z,11.50
2023-12-23T09:58:10.389Z,11.60
2023-12-23T10:00:39.304Z,11.60
2023-12-23T10:03:06.942Z,11.60
2023-12-23T10:05:35.969Z,11.60
2023-12-23T10:08:03.007Z,11.60
2023-12-23T10:10:32.816Z,11.60
2023-12-23T10:12:59.786Z,11.60
2023-12-23T10:15:27.345Z,11.60
2023-12-23T10:17:54.553Z,11.60
2023-12-23T10:20:21.716Z,11.60
2023-12-23T10:22:50.400Z,11.60
2023-12-23T10:25:17.723Z,11.60
2023-12-23T10:27:44.959Z,11.60
2023-12-23T10:30:13.597Z,11.70
2023-12-23T10:32:41.236Z,11.70
2023-12-23T10:35:12.014Z,11.70
2023-12-23T10:37:46.105Z,11.70
2023-12-23T10:40:21.404Z,11.70
2023-12-23T10:42:50.159Z,11.70
2023-12-23T10:45:18.610Z,11.70
2023-12-23T10:47:48.823Z,11.80
2023-12-23T10:50:17.565Z,11.70
2023-12-23T10:52:46.297Z,11.70
2023-12-23T10:55:13.941Z,11.80
2023-12-23T10:57:47.337Z,11.80
2023-12-23T11:00:15.061Z,11.80
2023-12-23T11:02:42.995Z,11.80
2023-12-23T11:05:13.268Z,11.80
2023-12-23T11:07:46.637Z,11.80
2023-12-23T11:10:15.910Z,11.80
2023-12-23T11:12:44.511Z,11.70
2023-12-23T11:15:11.571Z,11.80
2023-12-23T11:17:47.099Z,11.80
2023-12-23T11:20:43.005Z,11.80
2023-12-23T11:23:31.635Z,11.80
2023-12-23T11:25:59.992Z,11.80
2023-12-23T11:28:28.455Z,11.80
2023-12-23T11:31:00.363Z,11.70
2023-12-23T11:33:38.899Z,11.70
2023-12-23T11:36:07.121Z,11.80
2023-12-23T11:38:55.337Z,11.80
2023-12-23T11:41:23.181Z,11.80
2023-12-23T11:43:52.384Z,11.80
2023-12-23T11:46:21.878Z,11.70
2023-12-23T11:48:49.512Z,11.70
2023-12-23T11:51:16.660Z,11.80
2023-12-23T11:53:44.825Z,11.80
2023-12-23T11:56:12.155Z,11.80
2023-12-23T11:58:39.338Z,11.80
2023-12-23T12:01:06.816Z,11.80
2023-12-23T12:03:33.760Z,11.80
2023-12-23T12:06:02.474Z,11.80
2023-12-23T12:08:30.060Z,11.70
2023-12-23T12:11:02.057Z,11.70
2023-12-23T12:13:31.553Z,11.70
2023-12-23T12:15:58.469Z,11.70
2023-12-23T12:18:25.351Z,11.70
2023-12-23T12:20:52.268Z,11.80
2023-12-23T12:23:21.063Z,11.80
2023-12-23T12:25:51.936Z,11.80
2023-12-23T12:28:20.141Z,11.80
2023-12-23T12:30:48.297Z,11.80
2023-12-23T12:33:20.167Z,11.80
2023-12-23T12:35:47.586Z,11.80
2023-12-23T12:38:22.732Z,11.90
2023-12-23T12:40:51.632Z,11.80
2023-12-23T12:43:18.713Z,11.90
2023-12-23T12:45:51.960Z,11.90
2023-12-23T12:48:20.088Z,11.90
2023-12-23T12:50:49.679Z,12.10
2023-12-23T12:53:19.412Z,12.30
2023-12-23T12:55:47.749Z,12.40
2023-12-23T12:58:14.751Z,12.50
2023-12-23T13:00:42.650Z,12.40
2023-12-23T13:03:10.880Z,12.40
2023-12-23T13:05:37.993Z,12.30
2023-12-23T13:08:05.348Z,12.20
2023-12-23T13:10:35.881Z,12.20
2023-12-23T13:13:02.814Z,12.10
2023-12-23T13:15:29.844Z,12.10
2023-12-23T13:17:56.984Z,12.10
2023-12-23T13:20:24.138Z,12.10
2023-12-23T13:22:51.448Z,12.10
2023-12-23T13:25:18.982Z,12.10
2023-12-23T13:27:45.923Z,12.10
2023-12-23T13:30:12.961Z,12.00
2023-12-23T13:32:39.868Z,12.10
2023-12-23T13:35:07.186Z,12.10
2023-12-23T13:37:34.280Z,12.10
2023-12-23T13:40:01.620Z,12.20
2023-12-23T13:42:28.587Z,12.20
2023-12-23T13:44:55.501Z,12.30
2023-12-23T13:47:22.638Z,12.20
2023-12-23T13:49:49.769Z,12.20
2023-12-23T13:52:19.662Z,12.20
2023-12-23T13:54:47.010Z,12.20
2023-12-23T13:57:14.018Z,12.30
2023-12-23T13:59:40.919Z,12.40
2023-12-23T14:02:09.345Z,12.50
2023-12-23T14:04:38.097Z,12.50
2023-12-23T14:07:05.097Z,12.50
2023-12-23T14:09:33.960Z,12.40
2023-12-23T14:12:01.254Z,12.40
2023-12-23T14:14:28.219Z,12.40
2023-12-23T14:16:55.154Z,12.30
2023-12-23T14:19:22.207Z,12.30
2023-12-23T14:21:49.128Z,12.30
2023-12-23T14:24:16.116Z,12.30
2023-12-23T14:26:43.998Z,12.30
2023-12-23T14:29:10.962Z,12.30
2023-12-23T14:31:37.899Z,12.30
2023-12-23T14:34:04.922Z,12.30
2023-12-23T14:36:33.708Z,12.30
2023-12-23T14:39:01.726Z,12.30
2023-12-23T14:41:28.953Z,12.30
2023-12-23T14:43:55.999Z,12.30
2023-12-23T14:46:22.904Z,12.30
2023-12-23T14:48:50.344Z,12.30
2023-12-23T14:51:17.565Z,12.30
2023-12-23T14:53:47.207Z,12.30
2023-12-23T14:56:14.108Z,12.40
2023-12-23T14:58:41.036Z,12.40
2023-12-23T15:01:07.910Z,12.40
2023-12-23T15:03:34.873Z,12.40
2023-12-23T15:06:02.463Z,12.40
2023-12-23T15:08:29.596Z,12.40
2023-12-23T15:10:56.609Z,12.40
2023-12-23T15:13:25.179Z,12.40
2023-12-23T15:15:52.438Z,12.40
2023-12-23T15:18:19.640Z,12.40
2023-12-23T15:20:46.575Z,12.40
2023-12-23T15:23:13.554Z,12.40
2023-12-23T15:25:40.513Z,12.40
2023-12-23T15:28:07.454Z,12.40
2023-12-23T15:30:34.320Z,12.40
2023-12-23T15:33:01.860Z,12.40
2023-12-23T15:35:29.015Z,12.40
2023-12-23T15:37:55.941Z,12.40
2023-12-23T15:40:22.891Z,12.30
2023-12-23T15:42:53.478Z,12.30
2023-12-23T15:45:20.550Z,12.30
2023-12-23T15:47:51.548Z,12.30
2023-12-23T15:50:18.523Z,12.30
2023-12-23T15:52:45.412Z,12.30
2023-12-23T15:55:12.896Z,12.30
2023-12-23T15:57:41.210Z,12.30
2023-12-23T16:00:08.766Z,12.30
2023-12-23T16:02:35.739Z,12.30
2023-12-23T16:05:02.978Z,12.40
2023-12-23T16:07:30.183Z,12.40
2023-12-23T16:09:56.993Z,12.40
2023-12-23T16:12:23.901Z,12.40
2023-12-23T16:14:50.886Z,12.40
2023-12-23T16:17:20.347Z,12.30
2023-12-23T16:19:47.520Z,12.40
2023-12-23T16:22:14.569Z,12.40
2023-12-23T16:24:42.860Z,12.40
2023-12-23T16:27:10.906Z,12.40
2023-12-23T16:29:42.484Z,12.40
2023-12-23T16:32:09.687Z,12.40
2023-12-23T16:34:36.646Z,12.50
2023-12-23T16:37:03.857Z,12.50
2023-12-23T16:39:30.718Z,12.50
2023-12-23T16:41:57.571Z,12.50
2023-12-23T16:44:24.747Z,12.50
2023-12-23T16:46:51.626Z,12.50
2023-12-23T16:49:18.681Z,12.50
2023-12-23T16:51:45.822Z,12.50
2023-12-23T16:54:12.666Z,12.50
2023-12-23T16:56:39.703Z,12.40
2023-12-23T16:59:06.604Z,12.40
2023-12-23T17:01:33.514Z,12.40
2023-12-23T17:04:00.477Z,12.40
2023-12-23T17:06:27.452Z,12.40
2023-12-23T17:08:55.942Z,12.40
2023-12-23T17:11:23.106Z,12.40
2023-12-23T17:13:50.121Z,12.40
2023-12-23T17:16:19.369Z,12.50
2023-12-23T17:18:48.412Z,12.50
2023-12-23T17:21:15.355Z,12.40
2023-12-23T17:23:42.281Z,12.50
2023-12-23T17:26:09.298Z,12.50
2023-12-23T17:28:36.878Z,12.50
2023-12-23T17:31:05.224Z,12.60
2023-12-23T17:33:33.250Z,12.60
2023-12-23T17:36:00.238Z,12.60
2023-12-23T17:38:27.160Z,12.60
2023-12-23T17:40:54.228Z,12.50
2023-12-23T17:43:21.171Z,12.60
2023-12-23T17:45:48.043Z,12.50
2023-12-23T17:48:15.430Z,12.50
2023-12-23T17:50:43.712Z,12.60
2023-12-23T17:53:10.700Z,12.60
2023-12-23T17:55:37.607Z,12.50
2023-12-23T17:58:04.839Z,12.60
2023-12-23T18:00:31.679Z,12.60
2023-12-23T18:02:59.675Z,12.50
2023-12-23T18:05:26.624Z,12.60
2023-12-23T18:07:54.793Z,12.60
2023-12-23T18:10:23.254Z,12.60
2023-12-23T18:12:52.119Z,12.60
2023-12-23T18:15:19.092Z,12.60
2023-12-23T18:17:46.066Z,12.60
2023-12-23T18:20:13.156Z,12.60
2023-12-23T18:22:40.111Z,12.60
2023-12-23T18:25:07.272Z,12.60
2023-12-23T18:27:34.181Z,12.60
2023-12-23T18:30:01.303Z,12.60
2023-12-23T18:32:28.271Z,12.60
2023-12-23T18:34:55.321Z,12.60
2023-12-23T18:37:22.221Z,12.60
2023-12-23T18:39:49.051Z,12.60
2023-12-23T18:42:15.970Z,12.60
2023-12-23T18:44:44.665Z,12.50
2023-12-23T18:47:11.547Z,12.60
2023-12-23T18:49:38.454Z,12.60
2023-12-23T18:52:05.803Z,12.60
2023-12-23T18:54:32.703Z,12.50
2023-12-23T18:57:00.573Z,12.50
2023-12-23T18:59:29.873Z,12.50
2023-12-23T19:01:56.935Z,12.50
2023-12-23T19:04:23.859Z,12.50
2023-12-23T19:06:50.771Z,12.50
2023-12-23T19:09:17.625Z,12.50
2023-12-23T19:11:44.743Z,12.50
2023-12-23T19:14:11.804Z,12.50
2023-12-23T19:16:38.731Z,12.50
2023-12-23T19:19:06.196Z,12.50
2023-12-23T19:21:46.078Z,12.50
2023-12-23T19:24:14.243Z,12.50
2023-12-23T19:26:41.357Z,12.50
2023-12-23T19:29:09.633Z,12.50
2023-12-23T19:31:42.578Z,12.50
2023-12-23T19:34:10.297Z,12.50
2023-12-23T19:36:47.622Z,12.50
2023-12-23T19:39:19.603Z,12.50
2023-12-23T19:41:46.527Z,12.50
2023-12-23T19:44:13.454Z,12.50
2023-12-23T19:46:40.450Z,12.50
2023-12-23T19:49:09.304Z,12.50
2023-12-23T19:51:41.885Z,12.40
2023-12-23T19:59:32.920Z,12.40
2023-12-23T20:01:59.889Z,12.40
2023-12-23T20:04:28.355Z,12.40
2023-12-23T20:06:57.350Z,12.40
2023-12-23T20:09:26.895Z,12.30
2023-12-23T20:11:57.176Z,12.30
2023-12-23T20:14:34.642Z,12.20
2023-12-23T20:17:04.833Z,12.20
2023-12-23T20:19:32.987Z,12.30
2023-12-23T20:22:01.194Z,12.20
2023-12-23T20:24:31.048Z,12.20
2023-12-23T20:26:58.513Z,12.30
2023-12-23T20:29:26.451Z,12.20
2023-12-23T20:31:53.652Z,12.20
2023-12-23T20:34:22.371Z,12.20
2023-12-23T20:36:51.800Z,12.20
2023-12-23T20:39:26.532Z,12.20
2023-12-23T20:41:55.619Z,12.20
2023-12-23T20:44:22.651Z,12.20
2023-12-23T20:46:51.542Z,12.10
2023-12-23T20:49:20.198Z,12.10
2023-12-23T20:51:48.220Z,12.10
2023-12-23T20:54:15.273Z,12.10
2023-12-23T20:56:42.207Z,12.20
2023-12-23T20:59:09.149Z,12.10
2023-12-23T21:01:36.125Z,12.10
2023-12-23T21:04:04.143Z,12.20
2023-12-23T21:06:31.512Z,12.20
2023-12-23T21:09:00.370Z,12.10
2023-12-23T21:11:27.488Z,12.20
2023-12-23T21:13:54.472Z,12.20
2023-12-23T21:16:22.119Z,12.10
2023-12-23T21:18:49.745Z,12.10
2023-12-23T21:21:16.697Z,12.10
2023-12-23T21:23:43.612Z,12.10
2023-12-23T21:26:20.779Z,12.10
2023-12-23T21:28:47.921Z,12.20
2023-12-23T21:31:14.874Z,12.20
2023-12-23T21:33:41.785Z,12.10
2023-12-23T21:36:08.753Z,12.10
2023-12-23T21:38:36.072Z,12.10
2023-12-23T21:41:04.270Z,12.10
2023-12-23T21:43:31.140Z,12.20
2023-12-23T21:45:58.098Z,12.20
2023-12-23T21:48:25.254Z,12.20
2023-12-23T21:50:55.526Z,12.10
2023-12-23T21:53:23.824Z,12.20
2023-12-23T21:55:51.440Z,12.20
2023-12-23T21:58:18.504Z,12.20
2023-12-23T22:00:47.225Z,12.30
2023-12-23T22:03:14.350Z,12.20
2023-12-23T22:05:41.548Z,12.30
2023-12-23T22:08:08.719Z,12.30
2023-12-23T22:10:35.644Z,12.20
2023-12-23T22:13:02.454Z,12.30
2023-12-23T22:15:29.327Z,12.20
2023-12-23T22:17:56.291Z,12.30
2023-12-23T22:20:23.411Z,12.30
2023-12-23T22:22:50.514Z,12.20
2023-12-23T22:25:19.288Z,12.20
2023-12-23T22:27:46.167Z,12.30
2023-12-23T22:30:13.496Z,12.20
2023-12-23T22:32:40.626Z,12.20
2023-12-23T22:35:09.598Z,12.20
2023-12-23T22:37:36.593Z,12.20
2023-12-23T22:40:03.606Z,12.20
2023-12-23T22:42:30.498Z,12.20
2023-12-23T22:44:57.391Z,12.20
2023-12-23T22:47:24.396Z,12.20
2023-12-23T22:49:51.500Z,12.10
2023-12-23T22:52:18.786Z,12.10
2023-12-23T22:54:45.668Z,12.10
2023-12-23T22:57:12.492Z,12.10
2023-12-23T22:59:39.429Z,12.10
2023-12-23T23:02:08.550Z,12.10
2023-12-23T23:04:35.517Z,12.20
2023-12-23T23:07:02.457Z,12.10
2023-12-23T23:09:30.965Z,12.10
2023-12-23T23:11:58.421Z,12.10
2023-12-23T23:14:25.721Z,12.10
2023-12-23T23:16:52.853Z,12.00
2023-12-23T23:19:20.464Z,12.10
2023-12-23T23:21:47.415Z,12.00
2023-12-23T23:24:14.279Z,12.00
2023-12-23T23:26:41.331Z,12.00
2023-12-23T23:29:08.558Z,12.00
2023-12-23T23:31:38.827Z,12.00
2023-12-23T23:34:06.763Z,12.00
2023-12-23T23:36:33.832Z,12.00
2023-12-23T23:39:00.898Z,12.00
2023-12-23T23:41:28.817Z,11.90
2023-12-23T23:43:55.824Z,11.90
2023-12-23T23:46:22.674Z,11.90
2023-12-23T23:48:49.600Z,11.90
2023-12-23T23:51:21.082Z,12.00
2023-12-23T23:53:49.632Z,11.90
2023-12-23T23:56:20.279Z,12.00
2023-12-23T23:58:49.763Z,12.00
